Time;durP1;ratioP1;P1;durP2;ratioP2;P2;SDS_P1;SDS_P2;PMS_P1;PMS_P2;Temp;Humidity;BMP_temperature;BMP_pressure;BME280_temperature;BME280_humidity;BME280_pressure;Samples;Min_cycle;Max_cycle;Signal;HPM_P1;HPM_P2
2022/07/31 00:01:50;;;;;;;0.00;0.00;;;19.60;99.90;;;;;;5092549;28;20195;-56
2022/07/31 00:04:16;;;;;;;1.42;0.90;;;19.60;99.90;;;;;;5092692;28;20698;-57
2022/07/31 00:06:43;;;;;;;0.47;0.43;;;19.70;99.90;;;;;;5092791;28;20173;-56
2022/07/31 00:09:09;;;;;;;0.10;0.10;;;19.60;99.90;;;;;;5092308;28;20554;-58
2022/07/31 00:11:35;;;;;;;0.00;0.00;;;19.70;99.90;;;;;;5092653;28;20636;-54
2022/07/31 00:14:00;;;;;;;0.00;0.00;;;19.70;99.90;;;;;;5092531;28;20208;-55
2022/07/31 00:16:26;;;;;;;0.45;0.35;;;19.70;99.90;;;;;;5092364;28;20268;-54
2022/07/31 00:18:52;;;;;;;1.75;1.35;;;19.70;99.90;;;;;;5092578;28;20189;-55
2022/07/31 00:21:18;;;;;;;3.33;2.03;;;19.70;99.90;;;;;;5092245;28;20606;-55
2022/07/31 00:23:44;;;;;;;0.22;0.22;;;19.70;99.90;;;;;;5092338;28;20228;-56
2022/07/31 00:26:09;;;;;;;1.95;1.50;;;19.70;99.90;;;;;;5092118;28;20196;-57
2022/07/31 00:28:36;;;;;;;4.28;2.05;;;19.60;99.90;;;;;;5092248;28;20181;-55
2022/07/31 00:31:02;;;;;;;1.90;1.15;;;19.60;99.90;;;;;;5092354;28;20177;-55
2022/07/31 00:33:28;;;;;;;2.00;1.23;;;19.50;99.90;;;;;;5092018;28;20239;-54
2022/07/31 00:35:54;;;;;;;0.00;0.00;;;19.50;99.90;;;;;;5092049;28;20629;-55
2022/07/31 00:38:20;;;;;;;1.85;1.13;;;19.50;99.90;;;;;;5073519;28;20185;-55
2022/07/31 00:40:49;;;;;;;1.23;1.05;;;19.50;99.90;;;;;;5092181;28;20211;-56
2022/07/31 00:43:15;;;;;;;2.15;1.42;;;19.50;99.90;;;;;;5091735;28;20311;-55
2022/07/31 00:45:42;;;;;;;1.08;0.95;;;19.50;99.90;;;;;;5071748;28;20181;-57
2022/07/31 00:48:07;;;;;;;4.85;3.10;;;19.50;99.90;;;;;;5053919;28;20629;-58
2022/07/31 00:50:34;;;;;;;2.75;1.95;;;19.50;99.90;;;;;;5071578;28;20193;-57
2022/07/31 00:52:59;;;;;;;1.02;0.93;;;19.50;99.90;;;;;;5071667;28;20182;-55
2022/07/31 00:55:25;;;;;;;0.45;0.45;;;19.50;99.90;;;;;;5072064;28;20189;-59
2022/07/31 00:57:51;;;;;;;0.17;0.17;;;19.50;99.90;;;;;;5072024;28;20185;-57
2022/07/31 01:00:17;;;;;;;0.10;0.10;;;19.50;99.90;;;;;;5071666;28;20272;-57
2022/07/31 01:02:42;;;;;;;0.10;0.10;;;19.50;99.90;;;;;;5071663;28;20310;-57
2022/07/31 01:05:08;;;;;;;0.10;0.10;;;19.50;99.90;;;;;;5071701;28;20193;-59
2022/07/31 01:07:34;;;;;;;0.00;0.00;;;19.50;99.90;;;;;;5071346;28;20181;-57
2022/07/31 01:10:05;;;;;;;0.00;0.00;;;19.50;99.90;;;;;;5071950;28;20549;-56
2022/07/31 01:12:51;;;;;;;0.00;0.00;;;19.50;99.90;;;;;;5071493;28;20195;-57
2022/07/31 01:15:19;;;;;;;0.00;0.00;;;19.50;99.90;;;;;;5071335;28;20499;-57
2022/07/31 01:17:47;;;;;;;0.00;0.00;;;19.50;99.90;;;;;;5053588;28;20182;-57
2022/07/31 01:20:13;;;;;;;0.00;0.00;;;19.50;99.90;;;;;;5080916;28;20705;-57
2022/07/31 01:23:07;;;;;;;1.25;0.47;;;19.50;99.90;;;;;;5091873;28;20303;-57
2022/07/31 01:25:55;;;;;;;0.35;0.35;;;19.50;99.90;;;;;;5088451;28;20189;-55
2022/07/31 01:28:56;;;;;;;0.00;0.00;;;19.50;99.90;;;;;;5091607;28;20264;-57
2022/07/31 01:31:33;;;;;;;0.00;0.00;;;19.50;99.90;;;;;;5091885;28;20184;-57
2022/07/31 01:34:07;;;;;;;0.03;0.03;;;19.50;99.90;;;;;;5091940;28;20257;-56
2022/07/31 01:36:37;;;;;;;1.85;1.17;;;19.50;99.90;;;;;;5091589;28;20649;-56
2022/07/31 01:39:03;;;;;;;0.00;0.00;;;19.50;99.90;;;;;;5091854;28;20219;-58
2022/07/31 01:41:36;;;;;;;0.00;0.00;;;19.60;99.90;;;;;;5091561;28;20292;-57
2022/07/31 01:44:04;;;;;;;0.20;0.20;;;19.50;99.90;;;;;;5091678;28;20296;-59
2022/07/31 01:46:34;;;;;;;1.02;0.68;;;19.60;99.90;;;;;;5091162;28;20179;-56
2022/07/31 01:49:01;;;;;;;0.10;0.10;;;19.50;99.90;;;;;;5092146;28;20181;-53
2022/07/31 01:51:29;;;;;;;0.00;0.00;;;19.50;99.90;;;;;;5095069;28;20517;-56
2022/07/31 01:53:56;;;;;;;0.00;0.00;;;19.50;99.90;;;;;;5095214;28;20630;-57
2022/07/31 01:56:23;;;;;;;0.00;0.00;;;19.50;99.90;;;;;;5095367;28;20633;-56
2022/07/31 01:58:49;;;;;;;0.00;0.00;;;19.50;99.90;;;;;;5095140;28;20189;-56
2022/07/31 02:01:16;;;;;;;0.00;0.00;;;19.60;99.90;;;;;;5094986;28;20639;-56
2022/07/31 02:03:43;;;;;;;0.00;0.00;;;19.50;99.90;;;;;;5094468;28;20233;-54
2022/07/31 02:06:10;;;;;;;1.17;1.08;;;19.50;99.90;;;;;;5095316;28;20181;-56
2022/07/31 02:08:37;;;;;;;0.13;0.13;;;19.50;99.90;;;;;;5095021;28;20632;-54
2022/07/31 02:11:04;;;;;;;0.55;0.22;;;19.50;99.90;;;;;;5095097;28;20195;-54
2022/07/31 02:13:31;;;;;;;2.78;1.85;;;19.50;99.90;;;;;;5094803;28;20185;-56
2022/07/31 02:15:59;;;;;;;0.77;0.77;;;19.50;99.90;;;;;;5094565;28;20535;-58
2022/07/31 02:18:26;;;;;;;0.00;0.00;;;19.50;99.90;;;;;;5094463;28;20179;-56
2022/07/31 02:20:54;;;;;;;0.00;0.00;;;19.40;99.90;;;;;;5094716;28;20212;-55
2022/07/31 02:23:19;;;;;;;0.47;0.47;;;19.40;99.90;;;;;;5094459;28;20553;-58
2022/07/31 02:25:46;;;;;;;0.00;0.00;;;19.40;99.90;;;;;;5059855;28;20181;-55
2022/07/31 02:28:19;;;;;;;0.30;0.30;;;19.40;99.90;;;;;;5094914;28;20185;-54
2022/07/31 02:30:47;;;;;;;2.25;0.80;;;19.30;99.90;;;;;;5094537;28;20267;-58
2022/07/31 02:33:17;;;;;;;0.22;0.22;;;19.30;99.90;;;;;;5094756;28;20208;-55
2022/07/31 02:35:44;;;;;;;0.22;0.22;;;19.40;99.90;;;;;;5094510;28;20699;-55
2022/07/31 02:38:11;;;;;;;0.00;0.00;;;19.30;99.90;;;;;;5094523;28;20191;-57
2022/07/31 02:40:39;;;;;;;0.00;0.00;;;19.30;99.90;;;;;;5094380;28;20181;-55
2022/07/31 02:43:05;;;;;;;0.08;0.08;;;19.30;99.90;;;;;;5094247;28;20212;-57
2022/07/31 02:45:32;;;;;;;0.00;0.00;;;19.30;99.90;;;;;;5094185;28;20197;-57
2022/07/31 02:47:58;;;;;;;0.00;0.00;;;19.30;99.90;;;;;;5076387;28;20188;-56
2022/07/31 02:50:24;;;;;;;0.10;0.10;;;19.40;99.90;;;;;;5094314;28;20185;-56
2022/07/31 02:52:50;;;;;;;2.40;0.80;;;19.30;99.90;;;;;;5094330;28;20184;-56
2022/07/31 02:55:17;;;;;;;0.25;0.25;;;19.30;99.90;;;;;;5094061;28;20533;-74
2022/07/31 02:57:43;;;;;;;0.00;0.00;;;19.40;99.90;;;;;;5094172;28;20183;-57
2022/07/31 03:00:22;;;;;;;0.00;0.00;;;19.40;99.90;;;;;;5093938;28;20185;-56
2022/07/31 03:02:49;;;;;;;0.05;0.03;;;19.30;99.90;;;;;;5093574;28;20245;-57
2022/07/31 03:05:15;;;;;;;0.10;0.10;;;19.30;99.90;;;;;;5093929;28;20185;-56
2022/07/31 03:07:41;;;;;;;0.00;0.00;;;19.30;99.90;;;;;;5093685;28;20180;-58
2022/07/31 03:10:09;;;;;;;0.00;0.00;;;19.20;99.90;;;;;;5093999;28;20187;-59
2022/07/31 03:12:39;;;;;;;0.00;0.00;;;19.20;99.90;;;;;;5093350;28;20768;-56
2022/07/31 03:15:13;;;;;;;0.00;0.00;;;19.20;99.90;;;;;;5093873;28;20173;-56
2022/07/31 03:17:40;;;;;;;0.00;0.00;;;19.20;99.90;;;;;;5093096;28;20525;-54
2022/07/31 03:20:07;;;;;;;0.10;0.10;;;19.20;99.90;;;;;;5093488;28;20181;-58
2022/07/31 03:22:33;;;;;;;0.00;0.00;;;19.20;99.90;;;;;;5093039;28;20216;-57
2022/07/31 03:25:00;;;;;;;0.57;0.55;;;19.20;99.90;;;;;;5075019;28;20181;-55
2022/07/31 03:27:26;;;;;;;0.35;0.25;;;19.20;99.90;;;;;;5093450;28;20184;-60
2022/07/31 03:29:53;;;;;;;1.20;0.45;;;19.20;99.90;;;;;;5093812;28;20263;-57
2022/07/31 03:32:19;;;;;;;0.45;0.45;;;19.10;99.90;;;;;;5092948;28;20210;-58
2022/07/31 03:34:45;;;;;;;0.10;0.10;;;19.10;99.90;;;;;;5093235;28;20185;-55
2022/07/31 03:37:11;;;;;;;0.00;0.00;;;19.10;99.90;;;;;;5093276;28;20195;-61
2022/07/31 03:39:38;;;;;;;0.00;0.00;;;19.10;99.90;;;;;;5093054;28;20273;-58
2022/07/31 03:42:04;;;;;;;0.20;0.20;;;19.10;99.90;;;;;;5093267;28;20181;-56
2022/07/31 03:44:31;;;;;;;0.65;0.57;;;19.10;99.90;;;;;;5092859;28;20212;-57
2022/07/31 03:46:58;;;;;;;0.13;0.13;;;19.10;99.90;;;;;;5093178;28;20181;-58
2022/07/31 03:49:25;;;;;;;3.72;1.75;;;19.10;99.90;;;;;;5093034;28;20185;-56
2022/07/31 03:51:51;;;;;;;0.95;0.70;;;19.00;99.90;;;;;;5074781;28;20180;-57
2022/07/31 03:54:16;;;;;;;0.00;0.00;;;18.90;99.90;;;;;;5092905;28;20187;-54
2022/07/31 03:56:46;;;;;;;0.10;0.10;;;18.90;99.90;;;;;;5092645;28;20181;-61
2022/07/31 03:59:14;;;;;;;1.65;0.65;;;18.90;99.90;;;;;;5093051;28;20180;-61
2022/07/31 04:01:41;;;;;;;0.00;0.00;;;19.00;99.90;;;;;;5092285;28;20706;-57
2022/07/31 04:04:06;;;;;;;0.68;0.15;;;19.10;99.90;;;;;;5092925;28;20241;-56
2022/07/31 04:06:32;;;;;;;0.00;0.00;;;19.10;99.90;;;;;;5092764;28;20185;-57
2022/07/31 04:09:00;;;;;;;0.00;0.00;;;19.20;99.90;;;;;;5092687;28;20227;-59
2022/07/31 04:11:26;;;;;;;0.52;0.32;;;19.10;99.90;;;;;;5092225;28;20192;-55
2022/07/31 04:13:52;;;;;;;0.00;0.00;;;19.10;99.90;;;;;;5092655;28;20226;-57
2022/07/31 04:16:18;;;;;;;0.00;0.00;;;19.10;99.90;;;;;;5092699;28;20177;-57
2022/07/31 04:18:44;;;;;;;0.00;0.00;;;19.20;99.90;;;;;;5092194;28;20645;-57
2022/07/31 04:21:10;;;;;;;0.10;0.10;;;19.30;99.90;;;;;;5092406;28;20219;-56
2022/07/31 04:23:35;;;;;;;0.10;0.10;;;19.40;99.90;;;;;;5092134;28;20295;-57
2022/07/31 04:26:01;;;;;;;0.00;0.00;;;19.30;99.90;;;;;;5092957;28;20180;-55
2022/07/31 04:28:27;;;;;;;0.00;0.00;;;19.40;99.90;;;;;;5092340;28;20177;-56
2022/07/31 04:30:53;;;;;;;0.00;0.00;;;19.30;99.90;;;;;;5092312;28;20216;-57
2022/07/31 04:33:18;;;;;;;0.00;0.00;;;19.30;99.90;;;;;;5092499;28;20185;-61
2022/07/31 04:35:44;;;;;;;0.10;0.10;;;19.40;99.90;;;;;;5091759;28;20203;-57
2022/07/31 04:38:11;;;;;;;0.70;0.68;;;19.40;99.90;;;;;;5092324;28;20187;-56
2022/07/31 04:40:37;;;;;;;0.25;0.25;;;19.30;99.90;;;;;;5091706;28;20235;-56
2022/07/31 04:43:03;;;;;;;0.00;0.00;;;19.30;99.90;;;;;;5091861;28;20235;-57
2022/07/31 04:45:29;;;;;;;0.00;0.00;;;19.30;99.90;;;;;;5091384;28;20276;-55
2022/07/31 04:47:55;;;;;;;0.08;0.08;;;19.40;99.90;;;;;;5091785;28;20242;-56
2022/07/31 04:50:21;;;;;;;0.00;0.00;;;19.50;99.90;;;;;;5091787;28;20173;-56
2022/07/31 04:52:46;;;;;;;0.00;0.00;;;19.50;99.90;;;;;;5092113;28;20530;-57
2022/07/31 04:55:12;;;;;;;0.00;0.00;;;19.50;99.90;;;;;;5074226;28;20192;-57
2022/07/31 04:57:38;;;;;;;1.95;1.75;;;19.50;99.90;;;;;;5091645;28;20176;-56
2022/07/31 05:00:05;;;;;;;0.10;0.10;;;19.50;99.90;;;;;;5091827;28;20192;-55
2022/07/31 05:02:31;;;;;;;0.20;0.17;;;19.50;99.90;;;;;;5091591;28;20241;-56
2022/07/31 05:04:57;;;;;;;0.00;0.00;;;19.50;99.90;;;;;;5091523;28;20226;-56
2022/07/31 05:07:23;;;;;;;0.00;0.00;;;19.50;99.90;;;;;;5091621;28;20185;-77
2022/07/31 05:09:49;;;;;;;0.00;0.00;;;19.50;99.90;;;;;;5091777;28;20181;-56
2022/07/31 05:12:14;;;;;;;0.00;0.00;;;19.50;99.90;;;;;;5073921;28;20241;-56
2022/07/31 05:14:40;;;;;;;4.50;4.30;;;19.60;99.90;;;;;;5091182;28;20195;-58
2022/07/31 05:17:06;;;;;;;0.85;0.85;;;19.60;99.90;;;;;;5091899;28;20173;-57
2022/07/31 05:19:31;;;;;;;0.15;0.15;;;19.60;99.90;;;;;;5091205;28;20181;-55
2022/07/31 05:21:58;;;;;;;0.10;0.10;;;19.50;99.90;;;;;;5073640;28;20181;-56
2022/07/31 05:24:24;;;;;;;1.75;0.85;;;19.50;99.90;;;;;;5074969;28;20295;-73
2022/07/31 05:26:50;;;;;;;0.00;0.00;;;19.50;99.90;;;;;;5095527;28;20204;-62
2022/07/31 05:29:16;;;;;;;0.00;0.00;;;19.40;99.90;;;;;;5095124;28;20633;-57
2022/07/31 05:31:42;;;;;;;0.00;0.00;;;19.40;99.90;;;;;;5094788;28;20185;-57
2022/07/31 05:34:08;;;;;;;0.32;0.32;;;19.50;99.90;;;;;;5094867;28;20229;-55
2022/07/31 05:36:34;;;;;;;0.00;0.00;;;19.50;99.90;;;;;;5094282;28;20180;-57
2022/07/31 05:39:00;;;;;;;0.52;0.52;;;19.60;99.90;;;;;;5094862;28;20540;-57
2022/07/31 05:41:26;;;;;;;0.00;0.00;;;19.60;99.90;;;;;;5094571;28;20700;-59
2022/07/31 05:43:51;;;;;;;0.10;0.10;;;19.60;99.90;;;;;;5094917;28;20213;-58
2022/07/31 05:46:17;;;;;;;0.00;0.00;;;19.60;99.90;;;;;;5094742;28;20184;-57
2022/07/31 05:48:44;;;;;;;1.45;1.35;;;19.50;99.90;;;;;;5094488;28;20207;-57
2022/07/31 05:51:12;;;;;;;0.00;0.00;;;19.50;99.90;;;;;;5095137;28;20314;-56
2022/07/31 05:53:38;;;;;;;0.10;0.10;;;19.50;99.90;;;;;;5094820;28;20176;-57
2022/07/31 05:56:04;;;;;;;0.10;0.10;;;19.50;99.90;;;;;;5094798;28;20604;-55
2022/07/31 05:58:31;;;;;;;0.00;0.00;;;19.60;99.90;;;;;;5094091;28;20213;-57
2022/07/31 06:00:57;;;;;;;0.20;0.20;;;19.60;99.90;;;;;;5094845;28;20208;-62
2022/07/31 06:03:26;;;;;;;0.00;0.00;;;19.70;99.90;;;;;;5094776;28;20587;-58
2022/07/31 06:05:53;;;;;;;0.10;0.10;;;19.60;99.90;;;;;;5094617;28;20192;-61
2022/07/31 06:08:18;;;;;;;0.90;0.90;;;19.60;99.90;;;;;;5094747;28;20172;-58
2022/07/31 06:10:45;;;;;;;0.00;0.00;;;19.50;99.90;;;;;;5075979;28;20272;-57
2022/07/31 06:13:11;;;;;;;0.25;0.25;;;19.50;99.90;;;;;;5094727;28;20230;-57
2022/07/31 06:15:37;;;;;;;0.00;0.00;;;19.50;99.90;;;;;;5059527;28;20211;-61
2022/07/31 06:18:03;;;;;;;0.00;0.00;;;19.50;99.90;;;;;;5094694;28;20636;-59
2022/07/31 06:20:29;;;;;;;0.00;0.00;;;19.50;99.90;;;;;;5093972;28;20579;-59
2022/07/31 06:22:55;;;;;;;0.00;0.00;;;19.50;99.90;;;;;;5094439;28;20224;-58
2022/07/31 06:25:21;;;;;;;0.55;0.55;;;19.50;99.90;;;;;;5093994;28;20629;-58
2022/07/31 06:27:47;;;;;;;0.60;0.60;;;19.40;99.90;;;;;;5094050;28;20177;-56
2022/07/31 06:30:13;;;;;;;0.00;0.00;;;19.40;99.90;;;;;;5094294;28;20192;-56
2022/07/31 06:32:39;;;;;;;0.00;0.00;;;19.40;99.90;;;;;;5094226;28;20633;-58
2022/07/31 06:35:06;;;;;;;0.00;0.00;;;19.40;99.90;;;;;;5093688;28;20260;-57
2022/07/31 06:37:32;;;;;;;0.00;0.00;;;19.30;99.90;;;;;;5093395;28;20180;-56
2022/07/31 06:39:57;;;;;;;0.30;0.30;;;19.40;99.90;;;;;;5094133;28;20177;-63
2022/07/31 06:42:25;;;;;;;0.10;0.10;;;19.50;99.90;;;;;;5094059;28;20247;-59
2022/07/31 06:44:51;;;;;;;0.00;0.00;;;19.50;99.90;;;;;;5093605;28;20180;-55
2022/07/31 06:47:19;;;;;;;0.00;0.00;;;19.50;99.90;;;;;;5093903;28;20271;-54
2022/07/31 06:49:45;;;;;;;0.08;0.08;;;19.60;99.90;;;;;;5075280;28;20545;-53
2022/07/31 06:52:10;;;;;;;0.10;0.10;;;19.60;99.90;;;;;;5093478;28;20169;-55
2022/07/31 06:54:36;;;;;;;0.00;0.00;;;19.60;99.90;;;;;;5093403;28;20173;-54
2022/07/31 06:57:03;;;;;;;0.00;0.00;;;19.50;99.90;;;;;;5093859;28;20601;-53
2022/07/31 06:59:28;;;;;;;0.10;0.10;;;19.60;99.90;;;;;;5074841;28;20518;-53
2022/07/31 07:01:54;;;;;;;0.08;0.08;;;19.60;99.90;;;;;;5093198;28;20250;-57
2022/07/31 07:04:20;;;;;;;0.40;0.40;;;19.70;99.90;;;;;;5093462;28;20213;-55
2022/07/31 07:06:45;;;;;;;0.10;0.10;;;19.60;99.90;;;;;;5074831;28;20621;-54
2022/07/31 07:09:11;;;;;;;0.00;0.00;;;19.50;99.90;;;;;;5075464;28;20182;-54
2022/07/31 07:11:37;;;;;;;0.00;0.00;;;19.50;99.90;;;;;;5092895;28;20177;-52
2022/07/31 07:14:03;;;;;;;0.00;0.00;;;19.50;99.90;;;;;;5093140;28;20181;-54
2022/07/31 07:16:28;;;;;;;1.17;1.17;;;19.50;99.90;;;;;;5092777;28;20272;-50
2022/07/31 07:18:54;;;;;;;0.00;0.00;;;19.50;99.90;;;;;;5092162;28;20188;-54
2022/07/31 07:21:20;;;;;;;0.45;0.45;;;19.60;99.90;;;;;;5092355;28;20255;-57
2022/07/31 07:23:45;;;;;;;0.47;0.47;;;19.60;99.90;;;;;;5092204;28;20303;-53
2022/07/31 07:26:11;;;;;;;0.28;0.28;;;19.60;99.90;;;;;;5092717;28;20243;-53
2022/07/31 07:28:37;;;;;;;0.00;0.00;;;19.50;99.90;;;;;;5091985;28;20268;-52
2022/07/31 07:31:04;;;;;;;0.17;0.17;;;19.50;99.90;;;;;;5092903;28;20495;-52
2022/07/31 07:33:30;;;;;;;1.75;1.55;;;19.50;99.90;;;;;;5092566;28;20272;-59
2022/07/31 07:35:56;;;;;;;0.05;0.05;;;19.50;99.90;;;;;;5093292;28;20189;-56
2022/07/31 07:38:22;;;;;;;1.45;0.45;;;19.50;99.90;;;;;;5092810;28;20573;-49
2022/07/31 07:40:48;;;;;;;0.00;0.00;;;19.60;99.90;;;;;;5092575;28;20201;-54
2022/07/31 07:43:14;;;;;;;0.03;0.03;;;19.60;99.90;;;;;;5092705;28;20270;-53
2022/07/31 07:45:40;;;;;;;0.00;0.00;;;19.60;99.90;;;;;;5092125;28;20184;-53
2022/07/31 07:48:06;;;;;;;0.25;0.25;;;19.60;99.90;;;;;;5092188;28;20181;-57
2022/07/31 07:50:32;;;;;;;0.20;0.20;;;19.70;99.90;;;;;;5092660;28;20189;-53
2022/07/31 07:52:57;;;;;;;0.10;0.10;;;19.80;99.90;;;;;;5092702;28;20233;-55
2022/07/31 07:55:23;;;;;;;0.63;0.63;;;19.90;99.90;;;;;;5092652;28;20230;-54
2022/07/31 07:57:49;;;;;;;0.00;0.00;;;20.00;99.90;;;;;;5091573;28;20616;-54
2022/07/31 08:00:15;;;;;;;0.00;0.00;;;20.00;99.90;;;;;;5092390;28;20314;-53
2022/07/31 08:02:43;;;;;;;2.08;1.88;;;20.10;99.90;;;;;;5091654;28;20236;-54
2022/07/31 08:05:09;;;;;;;0.00;0.00;;;20.20;99.90;;;;;;5092205;28;20185;-53
2022/07/31 08:07:37;;;;;;;0.00;0.00;;;20.20;99.90;;;;;;5091821;28;20196;-53
2022/07/31 08:10:04;;;;;;;0.10;0.10;;;20.30;99.90;;;;;;5092172;28;20260;-54
2022/07/31 08:12:30;;;;;;;4.47;2.10;;;20.30;99.90;;;;;;5092182;28;20192;-52
2022/07/31 08:14:55;;;;;;;0.10;0.10;;;20.40;99.90;;;;;;5092249;28;20180;-54
2022/07/31 08:17:21;;;;;;;0.00;0.00;;;20.50;99.90;;;;;;5092249;28;20188;-55
2022/07/31 08:19:47;;;;;;;0.00;0.00;;;20.60;99.90;;;;;;5091665;28;20242;-57
2022/07/31 08:22:13;;;;;;;1.10;1.10;;;20.80;99.90;;;;;;5092175;28;20185;-53
2022/07/31 08:24:39;;;;;;;0.00;0.00;;;20.80;99.90;;;;;;5091413;28;20169;-54
2022/07/31 08:27:23;;;;;;;0.40;0.40;;;20.80;99.90;;;;;;5073689;28;20184;-54
2022/07/31 08:29:50;;;;;;;0.00;0.00;;;21.00;99.90;;;;;;5091912;28;20644;-54
2022/07/31 08:32:16;;;;;;;0.00;0.00;;;21.00;99.90;;;;;;5091740;28;20181;-55
2022/07/31 08:34:42;;;;;;;1.08;0.98;;;21.00;99.90;;;;;;5091368;28;20188;-61
2022/07/31 08:37:08;;;;;;;0.22;0.22;;;21.30;99.90;;;;;;5091770;28;20222;-58
2022/07/31 08:39:34;;;;;;;1.92;0.80;;;21.40;99.90;;;;;;5091604;28;20332;-54
2022/07/31 08:42:04;;;;;;;4.57;0.65;;;21.40;99.90;;;;;;5091746;28;20177;-55
2022/07/31 08:44:30;;;;;;;0.00;0.00;;;21.50;99.90;;;;;;5073900;28;20264;-56
2022/07/31 08:46:57;;;;;;;0.30;0.30;;;21.60;99.90;;;;;;5091447;28;20587;-56
2022/07/31 08:49:25;;;;;;;0.70;0.70;;;21.60;99.90;;;;;;5091565;28;20185;-53
2022/07/31 08:51:52;;;;;;;0.00;0.00;;;21.60;99.90;;;;;;5072986;28;20617;-54
2022/07/31 08:54:18;;;;;;;0.05;0.05;;;21.70;99.90;;;;;;5091319;28;20181;-58
2022/07/31 12:56:01;;;;;;;6.25;2.38;;;21.60;99.90;;;;;;5019360;28;20580;-61
2022/07/31 12:58:27;;;;;;;1.05;0.95;;;22.90;99.90;;;;;;5014853;28;20699;-61
2022/07/31 13:00:53;;;;;;;0.10;0.10;;;22.90;99.90;;;;;;5008826;28;20550;-61
2022/07/31 13:03:19;;;;;;;0.00;0.00;;;22.90;99.90;;;;;;5009342;28;20175;-62
2022/07/31 13:05:45;;;;;;;1.88;1.77;;;23.20;99.90;;;;;;5008998;28;20198;-62
2022/07/31 13:08:12;;;;;;;0.00;0.00;;;23.30;99.90;;;;;;5008911;28;20234;-61
2022/07/31 13:10:38;;;;;;;0.03;0.03;;;23.50;99.90;;;;;;5007755;28;20215;-61
2022/07/31 13:13:03;;;;;;;1.27;1.17;;;23.80;99.90;;;;;;5007155;28;20183;-62
2022/07/31 13:15:30;;;;;;;0.00;0.00;;;23.80;99.90;;;;;;5008567;28;20273;-61
2022/07/31 13:17:57;;;;;;;0.00;0.00;;;23.80;99.90;;;;;;5008333;28;20262;-62
2022/07/31 13:20:23;;;;;;;0.20;0.20;;;23.70;99.90;;;;;;5018881;28;20197;-63
2022/07/31 13:22:49;;;;;;;7.32;4.65;;;23.80;99.90;;;;;;5026598;28;20179;-62
2022/07/31 13:25:15;;;;;;;0.10;0.10;;;24.00;99.90;;;;;;5027803;28;20523;-62
2022/07/31 13:27:41;;;;;;;0.20;0.20;;;24.00;99.90;;;;;;5028277;28;20191;-62
2022/07/31 13:30:07;;;;;;;0.30;0.30;;;23.90;99.90;;;;;;5008057;28;20203;-63
2022/07/31 13:32:33;;;;;;;0.00;0.00;;;24.00;99.90;;;;;;5008513;28;20187;-62
2022/07/31 13:34:59;;;;;;;0.05;0.05;;;23.80;99.90;;;;;;5008000;28;20547;-62
2022/07/31 13:37:24;;;;;;;0.03;0.03;;;23.70;99.90;;;;;;5008478;28;20234;-62
2022/07/31 13:39:51;;;;;;;0.70;0.70;;;23.50;99.90;;;;;;5008099;28;20275;-62
2022/07/31 13:42:16;;;;;;;0.30;0.30;;;23.20;99.90;;;;;;5008303;28;20218;-63
2022/07/31 13:44:42;;;;;;;0.10;0.10;;;23.10;99.90;;;;;;5007926;28;20255;-63
2022/07/31 13:47:08;;;;;;;2.10;1.70;;;23.00;99.90;;;;;;5007801;28;20211;-62
2022/07/31 13:49:33;;;;;;;0.20;0.20;;;22.90;99.90;;;;;;5006846;28;20274;-62
2022/07/31 13:51:59;;;;;;;0.30;0.30;;;22.80;99.90;;;;;;5007589;28;20188;-61
2022/07/31 13:54:26;;;;;;;1.40;0.65;;;22.70;99.90;;;;;;5014520;28;20243;-62
2022/07/31 13:56:53;;;;;;;0.57;0.57;;;22.70;99.90;;;;;;5026995;28;20270;-62
2022/07/31 13:59:19;;;;;;;0.00;0.00;;;22.70;99.90;;;;;;5027656;28;20171;-62
2022/07/31 14:01:50;;;;;;;0.20;0.20;;;22.80;99.90;;;;;;5027544;28;20179;-62
2022/07/31 14:04:19;;;;;;;0.20;0.20;;;22.70;99.90;;;;;;5027262;28;20219;-62
2022/07/31 14:06:46;;;;;;;1.08;0.82;;;22.70;99.90;;;;;;5017621;28;20218;-62
2022/07/31 14:09:12;;;;;;;0.25;0.25;;;22.50;99.90;;;;;;5013126;28;20607;-61
2022/07/31 14:11:38;;;;;;;1.30;1.20;;;22.40;99.90;;;;;;5014181;28;20671;-61
2022/07/31 14:14:04;;;;;;;0.17;0.17;;;22.30;99.90;;;;;;5012567;28;20212;-61
2022/07/31 14:16:30;;;;;;;1.13;0.75;;;22.10;99.90;;;;;;5014117;28;20616;-62
2022/07/31 14:18:56;;;;;;;1.65;1.52;;;22.00;99.90;;;;;;5013940;28;20543;-62
2022/07/31 14:21:21;;;;;;;0.00;0.00;;;21.90;99.90;;;;;;5013816;28;20279;-62
2022/07/31 14:23:48;;;;;;;0.00;0.00;;;21.80;99.90;;;;;;5013984;28;20180;-62
2022/07/31 14:26:13;;;;;;;0.10;0.10;;;21.90;99.90;;;;;;5013526;28;20180;-62
2022/07/31 14:28:39;;;;;;;1.02;0.95;;;22.00;99.90;;;;;;5014176;28;20206;-61
2022/07/31 14:31:05;;;;;;;0.00;0.00;;;22.10;99.90;;;;;;5013598;28;20188;-62
2022/07/31 14:33:30;;;;;;;0.00;0.00;;;22.20;99.90;;;;;;5013799;28;20180;-62
2022/07/31 14:35:56;;;;;;;0.00;0.00;;;22.30;99.90;;;;;;5014024;28;20230;-62
2022/07/31 14:38:22;;;;;;;0.82;0.77;;;22.50;99.90;;;;;;5013852;28;20254;-62
2022/07/31 14:40:48;;;;;;;0.00;0.00;;;22.70;99.90;;;;;;5014311;28;20168;-63
2022/07/31 14:43:14;;;;;;;0.32;0.32;;;22.90;99.90;;;;;;5013633;28;20255;-63
2022/07/31 14:45:39;;;;;;;0.43;0.43;;;23.10;99.90;;;;;;5013532;28;20196;-63
2022/07/31 14:48:05;;;;;;;0.38;0.38;;;23.20;99.90;;;;;;5013660;28;20262;-62
2022/07/31 14:50:31;;;;;;;0.10;0.10;;;23.40;99.90;;;;;;5013491;28;20187;-61
2022/07/31 14:52:57;;;;;;;0.68;0.40;;;23.20;99.90;;;;;;5013530;28;20183;-61
2022/07/31 14:55:27;;;;;;;0.00;0.00;;;23.10;99.90;;;;;;5013295;28;20275;-61
2022/07/31 14:57:52;;;;;;;0.00;0.00;;;23.10;99.90;;;;;;5012936;28;20203;-62
2022/07/31 15:00:18;;;;;;;0.00;0.00;;;23.10;99.90;;;;;;5013657;28;20255;-62
2022/07/31 15:02:44;;;;;;;0.00;0.00;;;23.20;99.90;;;;;;5013293;28;20196;-62
2022/07/31 15:05:11;;;;;;;0.00;0.00;;;23.10;99.90;;;;;;5013089;28;20187;-61
2022/07/31 15:07:37;;;;;;;0.10;0.10;;;23.00;99.90;;;;;;5013371;28;20200;-62
2022/07/31 15:10:04;;;;;;;1.02;0.65;;;22.80;99.90;;;;;;5013336;28;20219;-62
2022/07/31 15:12:30;;;;;;;1.45;0.85;;;22.80;99.90;;;;;;5012962;28;20192;-62
2022/07/31 15:14:56;;;;;;;0.05;0.05;;;22.70;99.90;;;;;;5012652;28;20239;-63
2022/07/31 15:17:22;;;;;;;0.00;0.00;;;22.70;99.90;;;;;;5012098;28;20226;-61
2022/07/31 15:19:47;;;;;;;0.00;0.00;;;22.80;99.90;;;;;;5012930;28;20191;-63
2022/07/31 15:22:16;;;;;;;1.13;0.95;;;22.80;99.90;;;;;;5012700;28;20183;-62
2022/07/31 15:24:41;;;;;;;0.10;0.10;;;22.90;99.90;;;;;;5012728;28;20196;-62
2022/07/31 15:27:07;;;;;;;0.30;0.30;;;22.80;99.90;;;;;;5012485;28;20299;-62
2022/07/31 15:29:33;;;;;;;0.43;0.43;;;22.90;99.90;;;;;;5012770;28;20198;-62
2022/07/31 15:31:58;;;;;;;0.00;0.00;;;23.00;99.90;;;;;;5011311;28;20282;-62
2022/07/31 15:34:24;;;;;;;0.10;0.10;;;23.10;99.90;;;;;;5011786;28;20242;-63
2022/07/31 15:36:50;;;;;;;0.20;0.20;;;23.30;99.90;;;;;;5012011;28;20179;-61
2022/07/31 15:39:15;;;;;;;4.20;0.90;;;23.30;99.90;;;;;;5012304;28;20317;-61
2022/07/31 15:41:41;;;;;;;0.20;0.20;;;23.20;99.90;;;;;;5011556;28;20187;-62
2022/07/31 15:44:07;;;;;;;0.38;0.38;;;23.30;99.90;;;;;;5011075;28;20199;-61
2022/07/31 15:46:32;;;;;;;0.50;0.50;;;23.20;99.90;;;;;;5012535;28;20656;-62
2022/07/31 15:49:00;;;;;;;0.00;0.00;;;23.30;99.90;;;;;;5012313;28;20180;-62
2022/07/31 15:51:26;;;;;;;0.03;0.03;;;23.40;99.90;;;;;;5012778;28;20765;-62
2022/07/31 15:53:51;;;;;;;0.00;0.00;;;23.50;99.90;;;;;;5012526;28;20263;-63
2022/07/31 20:39:56;;;;;;;0.20;0.20;;;23.60;99.90;;;;;;5080001;28;20570;-61
2022/07/31 20:42:21;;;;;;;1.48;0.88;;;18.80;99.90;;;;;;5086766;28;20254;-61
2022/07/31 20:44:48;;;;;;;2.08;1.02;;;18.70;99.90;;;;;;5074632;28;20205;-60
2022/07/31 20:47:14;;;;;;;0.03;0.03;;;18.60;99.90;;;;;;5068648;28;20198;-61
2022/07/31 20:49:40;;;;;;;0.05;0.05;;;18.40;99.90;;;;;;5089201;28;20201;-61
2022/07/31 20:52:05;;;;;;;0.80;0.80;;;18.30;99.90;;;;;;5087498;28;20260;-62
2022/07/31 20:54:31;;;;;;;0.80;0.50;;;18.20;99.90;;;;;;5068550;28;20212;-61
2022/07/31 20:56:57;;;;;;;0.00;0.00;;;18.10;99.90;;;;;;5081896;28;20686;-62
2022/07/31 20:59:23;;;;;;;0.13;0.10;;;18.00;99.90;;;;;;5075459;28;20307;-60
2022/07/31 21:01:48;;;;;;;0.22;0.22;;;17.90;99.90;;;;;;5087974;28;20207;-62
2022/07/31 21:04:14;;;;;;;1.95;0.88;;;17.80;99.90;;;;;;5088516;28;20591;-62
2022/07/31 21:06:41;;;;;;;3.13;2.22;;;17.80;99.90;;;;;;5074863;28;20208;-61
2022/07/31 21:09:07;;;;;;;3.13;2.17;;;17.60;99.90;;;;;;5068045;28;20204;-61
2022/07/31 21:11:33;;;;;;;0.00;0.00;;;17.40;99.90;;;;;;5081379;28;20193;-61
2022/07/31 21:13:59;;;;;;;0.97;0.57;;;17.30;99.90;;;;;;5075693;28;20201;-61
2022/07/31 21:16:25;;;;;;;0.00;0.00;;;17.30;99.90;;;;;;5085696;28;20720;-60
2022/07/31 21:18:52;;;;;;;0.70;0.70;;;17.30;99.90;;;;;;5071444;28;20217;-58
2022/07/31 21:21:18;;;;;;;0.20;0.10;;;17.30;99.90;;;;;;5078966;28;20610;-59
2022/07/31 21:23:44;;;;;;;1.37;1.27;;;17.20;99.90;;;;;;5087195;28;20714;-58
2022/07/31 21:26:12;;;;;;;0.30;0.30;;;17.10;99.90;;;;;;5079397;28;20201;-58
2022/07/31 21:28:38;;;;;;;4.10;1.50;;;17.10;99.90;;;;;;5081594;28;20176;-58